Time;durP1;ratioP1;P1;durP2;ratioP2;P2;SDS_P1;SDS_P2;PMS_P1;PMS_P2;Temp;Humidity;BMP_temperature;BMP_pressure;BME280_temperature;BME280_humidity;BME280_pressure;Samples;Min_cycle;Max_cycle;Signal;HPM_P1;HPM_P2
2023/01/04 00:00:11;;;;;;;36.28;19.63;;;;;;;10.02;100.00;102266.06;4955416;29;20055;-88
2023/01/04 00:02:38;;;;;;;34.08;19.05;;;;;;;10.10;100.00;102273.09;4955787;28;20401;-88
2023/01/04 00:05:07;;;;;;;34.92;20.15;;;;;;;10.10;100.00;102273.09;4955803;29;20062;-88
2023/01/04 00:07:36;;;;;;;36.38;19.80;;;;;;;10.06;100.00;102266.44;4956117;29;20110;-89
2023/01/04 00:10:05;;;;;;;35.03;18.63;;;;;;;10.11;100.00;102269.31;4954963;29;20391;-88
2023/01/04 00:12:34;;;;;;;34.97;19.20;;;;;;;10.16;100.00;102260.41;4954534;29;20043;-88
2023/01/04 00:15:03;;;;;;;31.17;17.75;;;;;;;10.10;100.00;102264.91;4955721;29;20059;-88
2023/01/04 00:17:31;;;;;;;33.65;18.90;;;;;;;10.04;100.00;102257.63;4956008;29;20051;-89
2023/01/04 00:19:59;;;;;;;34.53;18.35;;;;;;;10.14;100.00;102266.09;4956194;29;20059;-88
2023/01/04 00:22:27;;;;;;;32.95;18.65;;;;;;;10.20;100.00;102267.91;4955539;29;20063;-88
2023/01/04 00:24:55;;;;;;;32.65;18.92;;;;;;;10.22;100.00;102265.75;4955436;29;20390;-88
2023/01/04 00:27:22;;;;;;;34.75;18.83;;;;;;;10.19;100.00;102260.78;4956191;29;20043;-89
2023/01/04 00:29:50;;;;;;;34.92;18.55;;;;;;;10.21;100.00;102255.03;4955952;29;20495;-89
2023/01/04 00:32:18;;;;;;;34.55;18.50;;;;;;;10.04;100.00;102263.94;4955668;29;20047;-88
2023/01/04 00:34:46;;;;;;;29.23;17.60;;;;;;;9.93;100.00;102254.63;4938970;29;20047;-88
2023/01/04 00:37:14;;;;;;;32.90;18.55;;;;;;;10.11;100.00;102261.09;4953989;29;20051;-87
2023/01/04 00:39:42;;;;;;;31.48;18.60;;;;;;;10.06;100.00;102259.06;4954202;29;20047;-88
2023/01/04 00:42:10;;;;;;;31.73;17.48;;;;;;;10.08;100.00;102258.84;4955449;28;20403;-88
2023/01/04 00:44:38;;;;;;;33.50;17.73;;;;;;;10.13;100.00;102260.88;4955776;29;20058;-87
2023/01/04 00:47:06;;;;;;;32.00;17.67;;;;;;;10.04;100.00;102263.09;4955191;29;20505;-87
2023/01/04 00:49:33;;;;;;;27.80;15.45;;;;;;;9.98;100.00;102258.56;4955314;29;20047;-87
2023/01/04 00:52:02;;;;;;;31.52;16.90;;;;;;;10.04;100.00;102258.47;4954835;29;20047;-87
2023/01/04 00:54:30;;;;;;;31.23;16.00;;;;;;;10.02;100.00;102260.59;4955115;29;20529;-88
2023/01/04 00:56:58;;;;;;;29.83;15.77;;;;;;;9.95;100.00;102260.72;4955362;29;20051;-88
2023/01/04 00:59:26;;;;;;;27.88;15.38;;;;;;;9.92;100.00;102252.97;4954542;29;20058;-88
2023/01/04 01:01:55;;;;;;;26.17;15.20;;;;;;;9.95;100.00;102255.25;4955210;29;20394;-88
2023/01/04 01:04:24;;;;;;;32.72;15.88;;;;;;;10.04;100.00;102255.75;4954870;28;20055;-88
2023/01/04 01:06:52;;;;;;;29.90;15.45;;;;;;;10.17;100.00;102260.16;4954278;29;20055;-88
2023/01/04 01:09:23;;;;;;;24.08;14.63;;;;;;;10.13;100.00;102263.59;4955373;29;20066;-88
2023/01/04 01:11:52;;;;;;;31.92;17.77;;;;;;;10.11;100.00;102260.28;4954746;29;20027;-88
2023/01/04 01:14:23;;;;;;;28.33;16.85;;;;;;;9.93;100.00;102262.03;4954712;29;20055;-87
2023/01/04 01:16:52;;;;;;;30.23;16.13;;;;;;;9.95;100.00;102262.63;4955726;29;20054;-87
2023/01/04 01:19:27;;;;;;;26.42;14.98;;;;;;;9.96;100.00;102275.22;4952912;29;22782;-87
2023/01/04 01:21:56;;;;;;;33.47;16.08;;;;;;;9.98;100.00;102275.84;4954284;29;20066;-88
2023/01/04 01:24:25;;;;;;;28.52;15.10;;;;;;;9.96;100.00;102272.47;4954755;29;20078;-88
2023/01/04 01:26:54;;;;;;;28.10;15.23;;;;;;;9.97;100.00;102276.06;4955264;29;20047;-87
2023/01/04 01:29:22;;;;;;;30.80;16.13;;;;;;;10.15;100.00;102281.44;4955766;29;20514;-87
2023/01/04 01:31:50;;;;;;;30.15;17.10;;;;;;;10.16;100.00;102276.81;4954746;29;20047;-88
2023/01/04 01:34:18;;;;;;;27.35;15.02;;;;;;;10.09;100.00;102282.38;4955137;29;20051;-88
2023/01/04 01:36:46;;;;;;;30.65;16.27;;;;;;;10.13;100.00;102282.75;4954292;29;20051;-87
2023/01/04 01:39:14;;;;;;;29.75;15.55;;;;;;;10.20;100.00;102275.25;4954640;29;20502;-87
2023/01/04 01:41:42;;;;;;;27.10;14.90;;;;;;;10.09;100.00;102271.44;4955178;29;20067;-87
2023/01/04 01:44:41;;;;;;;25.60;14.40;;;;;;;10.09;100.00;102276.91;4938167;29;20065;-88
2023/01/04 01:47:16;;;;;;;27.85;15.75;;;;;;;10.13;100.00;102283.59;4954022;29;20499;-88
2023/01/04 01:49:47;;;;;;;24.92;15.48;;;;;;;10.20;100.00;102289.78;4954921;29;20059;-88
2023/01/04 01:52:21;;;;;;;27.20;15.77;;;;;;;10.21;100.00;102283.25;4954858;29;20521;-88
2023/01/04 01:54:52;;;;;;;;;;;;;;;10.13;100.00;102272.66;4954770;29;20521;-88
2023/01/04 01:57:24;;;;;;;26.90;16.40;;;;;;;10.19;100.00;102282.66;4935843;29;19930;-87
2023/01/04 01:59:55;;;;;;;27.33;15.90;;;;;;;10.18;100.00;102278.22;4941014;29;20050;-88
2023/01/04 02:02:22;;;;;;;25.00;14.80;;;;;;;9.99;100.00;102285.69;4954275;29;20055;-87
2023/01/04 02:04:54;;;;;;;26.13;14.60;;;;;;;10.07;100.00;102287.28;4951922;29;20062;-88
2023/01/04 02:07:25;;;;;;;28.77;15.30;;;;;;;9.99;100.00;102287.59;4935942;29;20039;-88
2023/01/04 02:09:55;;;;;;;27.05;15.57;;;;;;;10.04;100.00;102291.31;4935481;29;20048;-88
2023/01/04 02:12:24;;;;;;;26.70;14.68;;;;;;;10.05;100.00;102286.66;4935054;29;20082;-87
2023/01/04 02:14:52;;;;;;;25.35;14.45;;;;;;;10.02;100.00;102287.13;4934836;29;20491;-88
2023/01/04 02:17:57;;;;;;;25.45;14.27;;;;;;;10.01;100.00;102286.28;4956349;28;20055;-87
2023/01/04 02:20:34;;;;;;;25.27;14.93;;;;;;;10.04;100.00;102291.31;4919042;29;20056;-87
2023/01/04 02:23:30;;;;;;;23.50;14.07;;;;;;;9.95;100.00;102268.94;4958041;29;20043;-87
2023/01/04 02:26:08;;;;;;;27.83;14.63;;;;;;;9.85;100.00;102265.06;4945759;29;20051;-87
2023/01/04 02:28:55;;;;;;;28.50;15.30;;;;;;;9.89;100.00;102267.13;4957977;29;20051;-88
2023/01/04 02:31:48;;;;;;;29.50;15.25;;;;;;;10.04;100.00;102263.94;4957346;29;20051;-88
2023/01/04 02:34:28;;;;;;;28.92;14.95;;;;;;;10.04;100.00;102258.47;4940879;29;20055;-87
2023/01/04 02:37:02;;;;;;;26.38;14.73;;;;;;;10.01;100.00;102252.63;4957314;29;20051;-87
2023/01/04 02:39:39;;;;;;;26.58;14.00;;;;;;;10.02;100.00;102255.13;4956785;29;20066;-88
2023/01/04 02:45:58;;;;;;;26.10;15.70;;;;;;;10.15;100.00;102255.97;4957902;29;20058;-87
2023/01/04 02:51:27;;;;;;;25.98;13.82;;;;;;;10.15;100.00;102248.63;4957532;29;20537;-87
2023/01/04 02:53:58;;;;;;;26.17;14.25;;;;;;;10.17;100.00;102257.41;4957100;29;20051;-88
2023/01/04 02:57:00;;;;;;;23.67;13.68;;;;;;;10.25;100.00;102258.97;4956626;29;20082;-87
2023/01/04 03:00:03;;;;;;;24.08;13.98;;;;;;;10.33;100.00;102263.28;4957057;29;20047;-86
2023/01/04 03:08:37;;;;;;;26.55;14.82;;;;;;;10.32;100.00;102256.13;4940327;29;20062;-87
2023/01/04 03:14:12;;;;;;;24.85;14.60;;;;;;;10.20;100.00;102256.97;4956949;29;20483;-88
2023/01/04 03:17:13;;;;;;;27.13;14.50;;;;;;;10.24;100.00;102251.00;4956922;29;20051;-88
2023/01/04 03:19:51;;;;;;;26.08;13.95;;;;;;;10.10;100.00;102248.50;4956077;29;20051;-87
2023/01/04 03:37:28;;;;;;;26.05;15.52;;;;;;;9.94;100.00;102244.53;4956336;29;20051;-88
2023/01/04 03:49:27;;;;;;;24.48;14.68;;;;;;;9.67;100.00;102236.72;4955973;29;20054;-87
2023/01/04 03:51:58;;;;;;;27.92;15.05;;;;;;;9.74;100.00;102236.66;4956022;29;20055;-87
2023/01/04 03:54:34;;;;;;;25.42;14.68;;;;;;;9.69;100.00;102229.16;4956927;29;20047;-88
2023/01/04 03:57:03;;;;;;;24.75;14.40;;;;;;;9.65;100.00;102228.78;4955958;29;20062;-88
2023/01/04 03:59:38;;;;;;;27.85;15.65;;;;;;;9.74;100.00;102232.03;4956225;29;20054;-87
2023/01/04 04:02:12;;;;;;;29.25;15.18;;;;;;;9.77;100.00;102228.81;4956504;29;20518;-87
2023/01/04 04:10:14;;;;;;;28.02;15.32;;;;;;;9.88;100.00;102224.41;4955724;29;20062;-88
2023/01/04 04:12:42;;;;;;;22.83;14.18;;;;;;;9.80;100.00;102222.03;4955624;29;20047;-87
2023/01/04 04:15:10;;;;;;;24.88;14.13;;;;;;;9.64;100.00;102218.06;4955040;29;20078;-88
2023/01/04 04:17:38;;;;;;;23.13;13.75;;;;;;;9.72;100.00;102223.19;4956039;29;20043;-87
2023/01/04 04:20:07;;;;;;;22.08;14.30;;;;;;;9.82;100.00;102211.69;4956171;29;20488;-87
2023/01/04 04:22:35;;;;;;;25.90;13.77;;;;;;;9.70;100.00;102217.16;4955402;29;20051;-87
2023/01/04 04:25:03;;;;;;;22.90;13.38;;;;;;;9.77;100.00;102223.34;4955133;29;20055;-87
2023/01/04 04:27:31;;;;;;;24.73;13.88;;;;;;;9.77;100.00;102225.22;4956071;28;20128;-87
2023/01/04 04:29:59;;;;;;;24.23;13.93;;;;;;;9.71;100.00;102220.69;4955111;29;20058;-87
2023/01/04 04:32:27;;;;;;;24.85;13.25;;;;;;;9.81;100.00;102227.28;4955907;29;20047;-87
2023/01/04 04:34:54;;;;;;;24.15;13.77;;;;;;;9.85;100.00;102232.25;4955340;29;20043;-87
2023/01/04 04:37:24;;;;;;;27.13;14.77;;;;;;;9.75;100.00;102230.09;4954857;29;20055;-87
2023/01/04 04:39:51;;;;;;;23.67;13.15;;;;;;;9.55;100.00;102228.50;4954606;28;20043;-87
2023/01/04 04:42:19;;;;;;;27.33;14.05;;;;;;;9.74;100.00;102228.44;4955220;29;20404;-87
2023/01/04 04:44:47;;;;;;;23.33;13.55;;;;;;;9.74;100.00;102239.38;4955160;29;20055;-87
2023/01/04 04:47:15;;;;;;;24.00;12.60;;;;;;;9.75;100.00;102239.16;4955485;29;20054;-87
2023/01/04 04:49:43;;;;;;;26.02;13.48;;;;;;;9.79;100.00;102237.59;4955400;29;20098;-87
2023/01/04 04:52:11;;;;;;;24.55;12.38;;;;;;;9.75;100.00;102238.31;4954884;29;20051;-87
2023/01/04 04:54:39;;;;;;;22.45;13.02;;;;;;;9.77;100.00;102230.69;4954753;29;20405;-87
2023/01/04 04:57:06;;;;;;;23.63;13.05;;;;;;;9.86;100.00;102228.44;4954703;29;20074;-87
2023/01/04 04:59:35;;;;;;;22.90;13.15;;;;;;;9.85;100.00;102226.78;4955117;29;20402;-88
2023/01/04 05:02:03;;;;;;;24.13;13.48;;;;;;;9.90;100.00;102222.31;4954940;29;20051;-87
2023/01/04 05:04:31;;;;;;;22.63;12.07;;;;;;;9.91;100.00;102231.31;4955001;29;20051;-87
2023/01/04 05:06:59;;;;;;;22.35;12.10;;;;;;;9.82;100.00;102233.56;4955290;29;20521;-87
2023/01/04 05:09:27;;;;;;;23.25;13.35;;;;;;;9.87;100.00;102230.97;4954801;29;20059;-87
2023/01/04 05:14:58;;;;;;;25.25;13.43;;;;;;;9.76;100.00;102229.88;4933301;29;20044;-86
2023/01/04 05:17:26;;;;;;;23.48;12.43;;;;;;;9.70;100.00;102235.44;4951167;29;20059;-87
2023/01/04 05:19:54;;;;;;;23.75;12.82;;;;;;;9.61;100.00;102246.72;4954349;29;20171;-87
2023/01/04 05:22:22;;;;;;;21.75;12.20;;;;;;;9.66;100.00;102252.31;4955271;29;20047;-87
2023/01/04 05:24:50;;;;;;;23.15;12.20;;;;;;;9.63;100.00;102246.47;4955146;29;20062;-87
2023/01/04 05:27:18;;;;;;;25.85;12.80;;;;;;;9.60;100.00;102252.41;4954319;29;20062;-87
2023/01/04 05:32:32;;;;;;;26.42;12.93;;;;;;;9.54;100.00;102256.91;4954610;29;20058;-87
2023/01/04 05:35:00;;;;;;;30.20;13.38;;;;;;;9.46;100.00;102251.75;4955116;29;20050;-87
2023/01/04 05:37:28;;;;;;;24.23;13.35;;;;;;;9.35;100.00;102267.88;4954070;29;20070;-87
2023/01/04 05:39:55;;;;;;;26.25;13.80;;;;;;;9.27;100.00;102257.25;4950622;29;20054;-87
2023/01/04 05:42:23;;;;;;;25.38;14.35;;;;;;;9.20;100.00;102253.78;4954830;29;20058;-87
2023/01/04 05:44:55;;;;;;;23.77;13.52;;;;;;;9.22;100.00;102259.81;4954428;29;20062;-87
2023/01/04 05:47:24;;;;;;;23.75;13.88;;;;;;;9.21;100.00;102255.44;4954905;29;20047;-87
2023/01/04 05:49:52;;;;;;;24.90;13.68;;;;;;;9.18;100.00;102264.09;4954253;29;20410;-85
2023/01/04 05:52:20;;;;;;;22.70;13.95;;;;;;;9.06;100.00;102262.13;4924103;29;20046;-86
2023/01/04 05:54:48;;;;;;;25.17;13.68;;;;;;;9.04;100.00;102269.69;4957508;29;20047;-89
2023/01/04 05:57:18;;;;;;;23.20;13.45;;;;;;;9.09;100.00;102278.03;4958264;29;20054;-83
2023/01/04 05:59:46;;;;;;;28.50;13.98;;;;;;;9.19;100.00;102279.44;4941384;29;20054;-87
2023/01/04 06:02:22;;;;;;;23.52;13.93;;;;;;;9.16;100.00;102280.72;4956950;29;20494;-86
2023/01/04 06:04:50;;;;;;;25.08;13.45;;;;;;;9.12;100.00;102280.34;4957656;29;20047;-88
2023/01/04 06:07:27;;;;;;;26.65;13.68;;;;;;;9.02;100.00;102269.09;4957711;29;20051;-87
2023/01/04 06:09:55;;;;;;;25.10;14.45;;;;;;;8.93;100.00;102278.66;4958326;29;20062;-88
2023/01/04 06:12:23;;;;;;;22.83;14.07;;;;;;;8.83;100.00;102269.09;4957540;29;20044;-87
2023/01/04 06:14:51;;;;;;;25.50;14.32;;;;;;;8.79;100.00;102272.53;4957031;29;20063;-88
2023/01/04 06:17:19;;;;;;;23.27;13.07;;;;;;;8.69;100.00;102264.81;4957358;29;20051;-89
2023/01/04 06:19:47;;;;;;;23.55;13.50;;;;;;;8.61;100.00;102279.63;4957260;29;20063;-88
2023/01/04 06:22:15;;;;;;;25.83;14.48;;;;;;;8.54;100.00;102279.66;4956674;29;20039;-87
2023/01/04 06:24:43;;;;;;;27.02;14.07;;;;;;;8.51;100.00;102274.63;4956695;29;20059;-86
2023/01/04 06:27:12;;;;;;;25.50;15.13;;;;;;;8.46;100.00;102277.22;4956968;29;20521;-87
2023/01/04 06:29:40;;;;;;;25.85;14.52;;;;;;;8.43;100.00;102283.94;4957357;29;20047;-87
2023/01/04 06:32:08;;;;;;;27.50;15.20;;;;;;;8.41;100.00;102285.22;4957180;29;20051;-88
2023/01/04 06:34:36;;;;;;;22.60;14.93;;;;;;;8.42;100.00;102271.34;4956561;29;20388;-89
2023/01/04 06:37:04;;;;;;;26.10;14.63;;;;;;;8.44;100.00;102284.75;4956823;29;20051;-89
2023/01/04 06:39:32;;;;;;;23.73;14.35;;;;;;;8.47;100.00;102281.59;4957067;29;20047;-86
2023/01/04 06:42:00;;;;;;;26.17;14.27;;;;;;;8.45;100.00;102281.81;4956741;29;20052;-85
2023/01/04 06:44:33;;;;;;;27.30;16.47;;;;;;;8.73;100.00;102282.44;4956155;29;20502;-83
2023/01/04 06:47:01;;;;;;;31.23;14.38;;;;;;;8.86;100.00;102292.38;4955717;29;20311;-85
2023/01/04 06:49:29;;;;;;;24.52;15.35;;;;;;;8.86;100.00;102297.84;4956469;29;20051;-84
2023/01/04 06:51:57;;;;;;;23.73;13.80;;;;;;;8.71;100.00;102288.09;4956168;29;20043;-84
2023/01/04 06:54:25;;;;;;;27.38;15.32;;;;;;;8.73;100.00;102286.00;4956535;29;20047;-85
2023/01/04 06:56:53;;;;;;;23.52;14.57;;;;;;;8.70;100.00;102293.81;4956458;29;20367;-85
2023/01/04 06:59:21;;;;;;;25.70;15.15;;;;;;;8.70;100.00;102299.28;4956990;29;20563;-84
2023/01/04 07:01:49;;;;;;;27.40;15.60;;;;;;;8.60;100.00;102299.75;4955828;29;20397;-85
2023/01/04 07:04:17;;;;;;;24.40;13.52;;;;;;;8.55;100.00;102300.44;4956189;28;20506;-85
2023/01/04 07:06:45;;;;;;;26.52;14.65;;;;;;;8.45;100.00;102302.78;4955185;29;20050;-84
2023/01/04 07:09:13;;;;;;;27.90;15.48;;;;;;;8.44;100.00;102298.41;4955385;29;20051;-84
2023/01/04 07:11:41;;;;;;;26.02;15.20;;;;;;;8.34;100.00;102309.81;4955285;29;20078;-85
2023/01/04 07:14:09;;;;;;;26.38;15.15;;;;;;;8.34;100.00;102318.84;4955747;29;20055;-85
2023/01/04 07:16:37;;;;;;;26.65;15.57;;;;;;;8.29;100.00;102321.41;4955641;29;20055;-85
2023/01/04 07:19:07;;;;;;;22.13;14.55;;;;;;;8.28;100.00;102317.00;4955297;29;20402;-85
2023/01/04 07:21:35;;;;;;;24.02;13.30;;;;;;;8.27;100.00;102315.31;4955901;29;20061;-84
2023/01/04 07:24:03;;;;;;;28.27;16.02;;;;;;;8.27;100.00;102328.13;4955948;29;20051;-84
2023/01/04 07:26:30;;;;;;;27.80;16.38;;;;;;;8.29;100.00;102326.88;4954636;29;20051;-84
2023/01/04 07:29:14;;;;;;;27.55;15.65;;;;;;;8.33;100.00;102332.72;4955088;29;20379;-84
2023/01/04 07:31:44;;;;;;;25.35;15.48;;;;;;;8.39;100.00;102330.97;4953226;29;20055;-85
2023/01/04 07:34:14;;;;;;;27.55;15.55;;;;;;;8.41;100.00;102323.41;4956213;29;20064;-85
2023/01/04 07:36:42;;;;;;;29.63;16.52;;;;;;;8.45;100.00;102328.19;4955477;29;20047;-84
2023/01/04 07:39:11;;;;;;;29.15;16.73;;;;;;;8.45;100.00;102335.53;4955287;29;20051;-84
2023/01/04 07:41:40;;;;;;;28.98;17.17;;;;;;;8.56;100.00;102331.31;4955154;29;20415;-85
2023/01/04 07:44:10;;;;;;;26.00;16.75;;;;;;;8.48;100.00;102313.28;4953483;29;20388;-85
2023/01/04 07:46:38;;;;;;;26.95;16.70;;;;;;;8.60;100.00;102322.44;4954604;29;20086;-85
2023/01/04 07:49:10;;;;;;;26.98;16.65;;;;;;;8.56;100.00;102331.31;4955193;29;20058;-84
2023/01/04 07:51:46;;;;;;;29.33;16.90;;;;;;;8.48;100.00;102346.03;4955906;29;20039;-84
2023/01/04 07:54:15;;;;;;;28.55;16.63;;;;;;;8.47;100.00;102330.72;4954852;29;20055;-84
2023/01/04 07:56:45;;;;;;;29.48;16.70;;;;;;;8.50;100.00;102338.44;4946823;29;20513;-85
2023/01/04 07:59:15;;;;;;;28.95;17.30;;;;;;;8.52;100.00;102336.38;4954752;29;20426;-75
2023/01/04 08:01:44;;;;;;;30.88;19.30;;;;;;;8.63;100.00;102337.53;4954338;29;20426;-75
2023/01/04 08:04:14;;;;;;;29.00;16.38;;;;;;;8.68;100.00;102336.84;4954711;29;20055;-76
2023/01/04 08:06:45;;;;;;;29.75;16.88;;;;;;;8.77;100.00;102335.53;4954533;29;20070;-75
2023/01/04 08:09:13;;;;;;;31.63;17.30;;;;;;;8.83;100.00;102337.34;4954101;29;20055;-76
2023/01/04 08:11:41;;;;;;;29.00;16.27;;;;;;;8.91;100.00;102349.88;4954295;29;20055;-76
2023/01/04 08:14:10;;;;;;;29.92;16.77;;;;;;;9.05;100.00;102339.63;4953580;28;20403;-75
2023/01/04 08:16:41;;;;;;;28.42;15.65;;;;;;;9.04;100.00;102343.44;4954296;29;20062;-76
2023/01/04 08:19:16;;;;;;;30.77;16.73;;;;;;;8.97;100.00;102342.69;4952599;29;20051;-75
2023/01/04 08:21:44;;;;;;;29.27;16.02;;;;;;;9.00;100.00;102336.78;4954784;29;20395;-75
2023/01/04 08:24:18;;;;;;;26.10;15.73;;;;;;;8.87;100.00;102349.50;4953766;29;20051;-75
2023/01/04 08:26:46;;;;;;;27.83;16.67;;;;;;;8.81;100.00;102352.28;4950978;29;20051;-75
2023/01/04 08:29:14;;;;;;;43.97;25.05;;;;;;;8.83;100.00;102348.28;4935078;29;20056;-75
2023/01/04 08:31:42;;;;;;;47.10;28.08;;;;;;;8.83;100.00;102353.72;4950219;29;20070;-74
2023/01/04 08:34:10;;;;;;;36.92;22.60;;;;;;;8.78;100.00;102361.75;4953777;29;20047;-76
2023/01/04 08:36:49;;;;;;;32.00;18.63;;;;;;;8.95;100.00;102361.19;4952387;29;20054;-76
2023/01/04 08:39:17;;;;;;;28.27;17.33;;;;;;;8.92;100.00;102361.63;4952860;29;20075;-74
2023/01/04 08:41:52;;;;;;;30.25;18.88;;;;;;;8.99;100.00;102367.84;4953955;29;20445;-75
2023/01/04 08:44:29;;;;;;;33.22;18.33;;;;;;;9.35;100.00;102358.03;4954037;29;20517;-76
2023/01/04 08:46:57;;;;;;;33.40;20.33;;;;;;;9.35;100.00;102359.94;4953051;29;20059;-76
2023/01/04 08:49:25;;;;;;;37.55;19.48;;;;;;;9.28;100.00;102351.78;4951871;29;20043;-76
2023/01/04 08:51:53;;;;;;;28.52;16.67;;;;;;;9.27;100.00;102352.88;4953359;29;20051;-76
2023/01/04 08:54:21;;;;;;;23.92;14.63;;;;;;;9.18;100.00;102356.97;4953554;29;20051;-76
2023/01/04 08:56:49;;;;;;;22.85;13.63;;;;;;;9.21;100.00;102353.78;4954028;29;20051;-76
2023/01/04 08:59:17;;;;;;;26.08;15.93;;;;;;;9.30;100.00;102357.88;4953599;29;20398;-76
2023/01/04 09:01:45;;;;;;;28.17;15.70;;;;;;;9.58;100.00;102348.28;4953780;29;20402;-76
2023/01/04 09:04:13;;;;;;;26.60;14.73;;;;;;;9.86;100.00;102346.88;4953821;29;20055;-76
2023/01/04 09:06:41;;;;;;;25.77;15.68;;;;;;;10.07;100.00;102339.25;4953432;29;20051;-76
2023/01/04 09:09:09;;;;;;;25.15;13.88;;;;;;;10.28;100.00;102346.06;4953871;29;20051;-76
2023/01/04 09:11:37;;;;;;;23.80;13.80;;;;;;;10.67;100.00;102359.38;4936368;29;20058;-76
2023/01/04 09:14:07;;;;;;;22.15;13.65;;;;;;;10.86;100.00;102354.59;4952916;29;20059;-76
2023/01/04 09:16:37;;;;;;;22.10;13.60;;;;;;;10.82;100.00;102352.59;4953283;29;20055;-76
2023/01/04 09:19:05;;;;;;;20.67;12.45;;;;;;;10.82;100.00;102360.81;4953936;29;20058;-76
2023/01/04 09:21:33;;;;;;;25.33;14.10;;;;;;;11.43;100.00;102363.25;4953437;29;20055;-76
2023/01/04 09:24:02;;;;;;;21.05;12.82;;;;;;;11.64;100.00;102367.25;4952665;29;20050;-76
2023/01/04 09:26:29;;;;;;;21.85;13.32;;;;;;;11.81;100.00;102367.31;4954224;28;20051;-76
2023/01/04 09:28:57;;;;;;;21.80;12.32;;;;;;;11.76;100.00;102372.69;4957340;29;20058;-76
2023/01/04 09:31:27;;;;;;;23.00;12.48;;;;;;;11.80;100.00;102370.31;4957853;29;20059;-76
2023/01/04 09:33:57;;;;;;;20.20;12.40;;;;;;;11.90;100.00;102366.91;4957878;29;20052;-76
2023/01/04 09:36:47;;;;;;;23.98;12.48;;;;;;;11.81;100.00;102372.81;4942781;29;20058;-76
2023/01/04 09:39:16;;;;;;;20.23;11.25;;;;;;;12.00;100.00;102369.88;4957311;29;20047;-76
2023/01/04 09:41:57;;;;;;;20.05;13.50;;;;;;;11.86;100.00;102366.56;4957240;29;20063;-76
2023/01/04 09:44:46;;;;;;;19.35;12.20;;;;;;;11.25;100.00;102358.75;4956912;29;20055;-76
2023/01/04 09:47:45;;;;;;;26.00;13.88;;;;;;;11.55;100.00;102347.59;4957350;29;20066;-76
2023/01/04 09:50:33;;;;;;;26.92;14.75;;;;;;;11.29;100.00;102348.97;4957891;29;20479;-76
2023/01/04 09:53:19;;;;;;;25.52;14.48;;;;;;;11.26;100.00;102357.69;4957388;29;20063;-76
2023/01/04 09:55:51;;;;;;;26.30;13.85;;;;;;;11.34;100.00;102354.56;4956809;29;20395;-76
2023/01/04 09:58:35;;;;;;;24.90;14.98;;;;;;;11.56;100.00;102356.66;4957386;29;20051;-76
2023/01/04 10:01:14;;;;;;;21.08;14.00;;;;;;;11.60;100.00;102352.38;4956894;29;20411;-76
2023/01/04 10:03:49;;;;;;;24.45;14.90;;;;;;;11.47;100.00;102356.22;4957006;29;20059;-76
2023/01/04 10:06:17;;;;;;;25.77;14.82;;;;;;;11.33;100.00;102346.59;4956631;29;20057;-76
2023/01/04 10:08:45;;;;;;;25.10;14.38;;;;;;;11.83;100.00;102353.34;4957228;29;20059;-76
2023/01/04 10:11:22;;;;;;;22.13;13.93;;;;;;;11.74;100.00;102346.59;4956584;29;20044;-76
2023/01/04 10:13:55;;;;;;;29.00;15.27;;;;;;;11.97;100.00;102337.41;4956641;29;20070;-76
2023/01/04 10:16:47;;;;;;;24.17;14.40;;;;;;;12.03;100.00;102335.63;4956278;29;20051;-76
2023/01/04 10:19:40;;;;;;;24.02;13.25;;;;;;;11.78;100.00;102343.09;4956549;29;20051;-76
2023/01/04 10:22:59;;;;;;;22.55;12.82;;;;;;;12.06;100.00;102341.47;4956876;29;20043;-75
2023/01/04 10:25:37;;;;;;;24.73;13.10;;;;;;;12.05;100.00;102336.22;4909176;29;20392;-75
2023/01/04 10:28:13;;;;;;;27.02;14.23;;;;;;;12.42;99.56;102340.44;4956004;29;20066;-75
2023/01/04 10:30:53;;;;;;;25.35;13.57;;;;;;;12.33;99.55;102342.75;4956371;29;20051;-75
2023/01/04 10:33:39;;;;;;;30.40;14.02;;;;;;;12.43;99.52;102333.84;4955732;29;20513;-75
2023/01/04 10:36:17;;;;;;;26.95;14.65;;;;;;;12.33;98.32;102329.84;4955942;29;20058;-75
2023/01/04 10:38:53;;;;;;;29.98;16.08;;;;;;;12.35;97.52;102318.63;4955240;28;20047;-75
2023/01/04 10:41:25;;;;;;;40.90;17.20;;;;;;;12.73;97.44;102319.78;4956175;29;20047;-75
2023/01/04 10:44:10;;;;;;;31.33;15.48;;;;;;;13.28;95.55;102305.38;4956085;29;20055;-75
2023/01/04 10:47:08;;;;;;;27.83;13.75;;;;;;;13.52;92.42;102303.22;4955611;29;20055;-75
2023/01/04 10:49:50;;;;;;;28.52;14.30;;;;;;;13.54;92.71;102302.97;4945969;29;20047;-74
2023/01/04 10:52:44;;;;;;;28.73;14.25;;;;;;;13.57;91.82;102291.44;4956001;29;20051;-75
2023/01/04 10:55:28;;;;;;;28.63;13.27;;;;;;;13.12;93.18;102285.13;4955689;29;20047;-75
2023/01/04 10:58:07;;;;;;;22.88;13.50;;;;;;;12.99;93.85;102273.41;4955689;29;20622;-75
2023/01/04 11:00:54;;;;;;;24.45;13.23;;;;;;;13.11;93.29;102277.97;4955234;29;20498;-75
2023/01/04 11:03:42;;;;;;;21.15;12.50;;;;;;;13.40;92.60;102275.81;4952434;29;20502;-75
2023/01/04 11:06:20;;;;;;;29.50;14.60;;;;;;;13.53;91.71;102269.13;4950957;29;20063;-74
2023/01/04 11:09:03;;;;;;;24.80;12.82;;;;;;;13.76;91.34;102267.16;4952504;28;20491;-74
2023/01/04 11:11:39;;;;;;;21.80;12.35;;;;;;;13.81;87.55;102263.63;4952094;28;20478;-74
2023/01/04 11:14:09;;;;;;;29.67;16.52;;;;;;;13.43;90.55;102258.81;4950619;28;20066;-74
2023/01/04 11:16:39;;;;;;;26.90;12.75;;;;;;;13.65;90.63;102259.91;4952285;28;20052;-76
2023/01/04 11:19:09;;;;;;;22.55;13.02;;;;;;;13.81;88.98;102258.13;4954422;28;20411;-76
2023/01/04 11:21:46;;;;;;;25.08;13.00;;;;;;;13.96;86.66;102251.94;4954293;29;20066;-76
2023/01/04 11:24:15;;;;;;;21.52;12.23;;;;;;;14.10;85.87;102260.59;4955409;29;20051;-74
2023/01/04 11:27:13;;;;;;;22.23;12.50;;;;;;;13.75;87.61;102248.16;4954777;29;20061;-77
2023/01/04 11:30:04;;;;;;;21.52;12.32;;;;;;;13.82;88.29;102238.63;4953574;29;20051;-77
2023/01/04 11:32:45;;;;;;;26.08;13.45;;;;;;;14.07;86.85;102236.31;4953885;29;20067;-77
2023/01/04 11:35:13;;;;;;;23.08;12.38;;;;;;;14.07;86.83;102236.31;4954260;29;20493;-77
2023/01/04 11:37:41;;;;;;;23.08;12.80;;;;;;;14.09;86.10;102239.66;4954980;29;20063;-77
2023/01/04 11:40:27;;;;;;;23.85;12.60;;;;;;;14.05;86.86;102230.25;4955452;29;20062;-77
2023/01/04 11:43:10;;;;;;;19.90;11.95;;;;;;;13.70;88.05;102222.25;4954686;29;20048;-77
2023/01/04 11:45:39;;;;;;;17.17;10.98;;;;;;;13.70;87.36;102219.50;4952274;29;20047;-76
2023/01/04 11:48:14;;;;;;;18.73;10.32;;;;;;;13.59;87.60;102217.75;4951857;29;20419;-77
2023/01/04 11:50:47;;;;;;;17.80;10.68;;;;;;;13.79;87.89;102219.03;4950757;28;20509;-77
2023/01/04 11:53:31;;;;;;;16.98;10.15;;;;;;;13.91;87.12;102214.19;4953233;28;20063;-77
2023/01/04 11:56:15;;;;;;;17.25;10.27;;;;;;;14.01;85.56;102213.44;4953405;29;20047;-77
2023/01/04 11:59:03;;;;;;;18.02;10.63;;;;;;;14.28;84.48;102212.56;4952387;29;20058;-77
2023/01/04 12:01:53;;;;;;;17.50;8.98;;;;;;;14.44;82.41;102216.22;4952543;29;20051;-77
2023/01/04 12:04:25;;;;;;;13.48;7.88;;;;;;;14.51;79.25;102213.22;4923084;29;20078;-77
2023/01/04 12:07:01;;;;;;;11.55;7.13;;;;;;;14.42;78.70;102212.06;4952579;29;20104;-76
2023/01/04 12:09:30;;;;;;;13.85;6.85;;;;;;;14.34;78.71;102210.66;4952685;29;20039;-75
2023/01/04 12:11:59;;;;;;;11.90;6.75;;;;;;;14.44;77.65;102204.38;4952020;29;20415;-76
2023/01/04 12:14:42;;;;;;;14.25;8.02;;;;;;;14.61;79.10;102204.19;4952164;29;20407;-76
2023/01/04 12:17:17;;;;;;;14.05;7.78;;;;;;;14.59;77.59;102204.47;4951979;29;20043;-76
2023/01/04 12:19:46;;;;;;;12.93;7.25;;;;;;;14.60;78.40;102188.75;4951290;29;20055;-76
2023/01/04 12:22:26;;;;;;;14.10;8.02;;;;;;;14.69;77.44;102180.78;4951991;29;20074;-75